sensor_id;sensor_type;location;lat;lon;timestamp;P1;durP1;ratioP1;P2;durP2;ratioP2
49514;SDS011;35415;47.870;16.058;2023-01-23T00:01:06;3.17;;;2.08;;
49514;SDS011;35415;47.870;16.058;2023-01-23T00:03:36;7.05;;;4.10;;
49514;SDS011;35415;47.870;16.058;2023-01-23T00:06:04;3.13;;;2.25;;
49514;SDS011;35415;47.870;16.058;2023-01-23T00:08:35;5.57;;;2.35;;
49514;SDS011;35415;47.870;16.058;2023-01-23T00:11:03;6.63;;;3.70;;
49514;SDS011;35415;47.870;16.058;2023-01-23T00:13:32;5.07;;;3.38;;
49514;SDS011;35415;47.870;16.058;2023-01-23T00:16:02;4.97;;;2.92;;
49514;SDS011;35415;47.870;16.058;2023-01-23T00:18:32;6.30;;;2.92;;
49514;SDS011;35415;47.870;16.058;2023-01-23T00:21:04;5.13;;;2.50;;
49514;SDS011;35415;47.870;16.058;2023-01-23T00:23:34;2.88;;;2.22;;
49514;SDS011;35415;47.870;16.058;2023-01-23T00:26:02;4.38;;;2.58;;
49514;SDS011;35415;47.870;16.058;2023-01-23T00:28:31;5.15;;;2.50;;
49514;SDS011;35415;47.870;16.058;2023-01-23T00:31:02;4.60;;;2.72;;
49514;SDS011;35415;47.870;16.058;2023-01-23T00:33:30;4.00;;;2.85;;
49514;SDS011;35415;47.870;16.058;2023-01-23T00:35:57;3.88;;;2.63;;
49514;SDS011;35415;47.870;16.058;2023-01-23T00:38:26;3.28;;;2.60;;
49514;SDS011;35415;47.870;16.058;2023-01-23T00:40:54;4.63;;;2.80;;
49514;SDS011;35415;47.870;16.058;2023-01-23T00:43:22;4.57;;;3.47;;
49514;SDS011;35415;47.870;16.058;2023-01-23T00:45:50;4.38;;;3.00;;
49514;SDS011;35415;47.870;16.058;2023-01-23T00:48:17;4.70;;;2.83;;
49514;SDS011;35415;47.870;16.058;2023-01-23T00:50:45;6.88;;;2.55;;
49514;SDS011;35415;47.870;16.058;2023-01-23T00:53:12;4.53;;;2.70;;
49514;SDS011;35415;47.870;16.058;2023-01-23T00:55:43;4.55;;;2.45;;
49514;SDS011;35415;47.870;16.058;2023-01-23T00:58:10;3.17;;;2.50;;
49514;SDS011;35415;47.870;16.058;2023-01-23T01:00:37;4.53;;;3.17;;
49514;SDS011;35415;47.870;16.058;2023-01-23T01:03:06;4.82;;;3.05;;
49514;SDS011;35415;47.870;16.058;2023-01-23T01:05:34;4.10;;;2.53;;
49514;SDS011;35415;47.870;16.058;2023-01-23T01:08:02;5.40;;;3.17;;
49514;SDS011;35415;47.870;16.058;2023-01-23T01:10:29;3.55;;;2.67;;
49514;SDS011;35415;47.870;16.058;2023-01-23T01:12:59;4.60;;;2.95;;
49514;SDS011;35415;47.870;16.058;2023-01-23T01:15:29;3.28;;;2.00;;
49514;SDS011;35415;47.870;16.058;2023-01-23T01:17:59;5.18;;;3.13;;
49514;SDS011;35415;47.870;16.058;2023-01-23T01:20:26;2.97;;;1.60;;
49514;SDS011;35415;47.870;16.058;2023-01-23T01:22:55;5.75;;;2.92;;
49514;SDS011;35415;47.870;16.058;2023-01-23T01:25:24;5.30;;;2.78;;
49514;SDS011;35415;47.870;16.058;2023-01-23T01:27:52;4.75;;;2.63;;
49514;SDS011;35415;47.870;16.058;2023-01-23T01:30:21;2.42;;;2.10;;
49514;SDS011;35415;47.870;16.058;2023-01-23T01:32:50;5.22;;;2.72;;
49514;SDS011;35415;47.870;16.058;2023-01-23T01:35:20;4.55;;;3.08;;
49514;SDS011;35415;47.870;16.058;2023-01-23T01:37:48;7.47;;;3.78;;
49514;SDS011;35415;47.870;16.058;2023-01-23T01:40:16;5.85;;;3.35;;
49514;SDS011;35415;47.870;16.058;2023-01-23T01:42:46;3.35;;;2.17;;
49514;SDS011;35415;47.870;16.058;2023-01-23T01:48:22;5.05;;;3.17;;
49514;SDS011;35415;47.870;16.058;2023-01-23T01:50:52;5.13;;;3.00;;
49514;SDS011;35415;47.870;16.058;2023-01-23T01:53:20;3.90;;;2.50;;
49514;SDS011;35415;47.870;16.058;2023-01-23T01:55:51;4.85;;;3.20;;
49514;SDS011;35415;47.870;16.058;2023-01-23T01:58:19;2.80;;;1.73;;
49514;SDS011;35415;47.870;16.058;2023-01-23T02:00:47;4.38;;;2.58;;
49514;SDS011;35415;47.870;16.058;2023-01-23T02:03:14;5.10;;;2.63;;
49514;SDS011;35415;47.870;16.058;2023-01-23T02:05:45;3.60;;;2.40;;
49514;SDS011;35415;47.870;16.058;2023-01-23T02:08:17;7.13;;;2.97;;
49514;SDS011;35415;47.870;16.058;2023-01-23T02:10:49;6.50;;;3.55;;
49514;SDS011;35415;47.870;16.058;2023-01-23T02:13:22;6.40;;;3.05;;
49514;SDS011;35415;47.870;16.058;2023-01-23T02:15:54;4.47;;;3.17;;
49514;SDS011;35415;47.870;16.058;2023-01-23T02:18:23;4.85;;;3.10;;
49514;SDS011;35415;47.870;16.058;2023-01-23T02:20:53;4.00;;;2.75;;
49514;SDS011;35415;47.870;16.058;2023-01-23T02:23:23;4.40;;;2.80;;
49514;SDS011;35415;47.870;16.058;2023-01-23T02:26:03;2.85;;;2.25;;
49514;SDS011;35415;47.870;16.058;2023-01-23T02:28:36;4.90;;;3.10;;
49514;SDS011;35415;47.870;16.058;2023-01-23T02:31:04;4.20;;;2.80;;
49514;SDS011;35415;47.870;16.058;2023-01-23T02:33:43;5.53;;;3.30;;
49514;SDS011;35415;47.870;16.058;2023-01-23T02:36:12;3.58;;;2.60;;
49514;SDS011;35415;47.870;16.058;2023-01-23T02:38:41;4.75;;;2.80;;
49514;SDS011;35415;47.870;16.058;2023-01-23T02:41:19;6.00;;;3.20;;
49514;SDS011;35415;47.870;16.058;2023-01-23T02:43:52;5.05;;;3.03;;
49514;SDS011;35415;47.870;16.058;2023-01-23T02:46:22;5.00;;;3.38;;
49514;SDS011;35415;47.870;16.058;2023-01-23T02:48:50;4.65;;;2.88;;
49514;SDS011;35415;47.870;16.058;2023-01-23T02:51:18;6.28;;;3.40;;
49514;SDS011;35415;47.870;16.058;2023-01-23T02:53:47;6.10;;;3.10;;
49514;SDS011;35415;47.870;16.058;2023-01-23T02:56:15;5.43;;;3.65;;
49514;SDS011;35415;47.870;16.058;2023-01-23T02:58:44;3.97;;;2.42;;
49514;SDS011;35415;47.870;16.058;2023-01-23T03:01:29;7.15;;;3.30;;
49514;SDS011;35415;47.870;16.058;2023-01-23T03:04:00;5.10;;;3.15;;
49514;SDS011;35415;47.870;16.058;2023-01-23T03:06:31;3.88;;;2.30;;
49514;SDS011;35415;47.870;16.058;2023-01-23T03:09:03;8.75;;;4.75;;
49514;SDS011;35415;47.870;16.058;2023-01-23T03:11:34;3.40;;;2.38;;
49514;SDS011;35415;47.870;16.058;2023-01-23T03:14:05;6.15;;;4.00;;
49514;SDS011;35415;47.870;16.058;2023-01-23T03:16:33;8.20;;;3.78;;
49514;SDS011;35415;47.870;16.058;2023-01-23T03:19:01;5.68;;;3.80;;
49514;SDS011;35415;47.870;16.058;2023-01-23T03:21:32;5.57;;;3.58;;
49514;SDS011;35415;47.870;16.058;2023-01-23T03:24:02;6.85;;;3.95;;
49514;SDS011;35415;47.870;16.058;2023-01-23T03:26:30;5.18;;;3.92;;
49514;SDS011;35415;47.870;16.058;2023-01-23T03:28:58;6.63;;;3.25;;
49514;SDS011;35415;47.870;16.058;2023-01-23T03:31:44;8.50;;;3.70;;
49514;SDS011;35415;47.870;16.058;2023-01-23T03:34:11;5.43;;;3.92;;
49514;SDS011;35415;47.870;16.058;2023-01-23T03:36:39;3.88;;;2.08;;
49514;SDS011;35415;47.870;16.058;2023-01-23T03:39:06;6.03;;;3.60;;
49514;SDS011;35415;47.870;16.058;2023-01-23T03:41:51;6.05;;;3.60;;
49514;SDS011;35415;47.870;16.058;2023-01-23T03:44:19;4.97;;;3.38;;
49514;SDS011;35415;47.870;16.058;2023-01-23T03:46:48;7.05;;;4.03;;
49514;SDS011;35415;47.870;16.058;2023-01-23T03:49:18;7.13;;;3.88;;
49514;SDS011;35415;47.870;16.058;2023-01-23T03:51:46;4.80;;;3.05;;
49514;SDS011;35415;47.870;16.058;2023-01-23T03:54:13;6.45;;;3.58;;
49514;SDS011;35415;47.870;16.058;2023-01-23T03:56:40;4.45;;;2.63;;
49514;SDS011;35415;47.870;16.058;2023-01-23T03:59:08;8.02;;;4.28;;
49514;SDS011;35415;47.870;16.058;2023-01-23T04:01:38;4.78;;;3.03;;
49514;SDS011;35415;47.870;16.058;2023-01-23T04:04:07;4.22;;;3.03;;
49514;SDS011;35415;47.870;16.058;2023-01-23T04:06:36;7.30;;;4.53;;
49514;SDS011;35415;47.870;16.058;2023-01-23T04:09:04;4.97;;;2.58;;
49514;SDS011;35415;47.870;16.058;2023-01-23T04:11:31;7.53;;;3.95;;
49514;SDS011;35415;47.870;16.058;2023-01-23T04:13:59;6.95;;;4.20;;
49514;SDS011;35415;47.870;16.058;2023-01-23T04:16:26;8.43;;;4.18;;
49514;SDS011;35415;47.870;16.058;2023-01-23T04:18:54;5.63;;;3.72;;
49514;SDS011;35415;47.870;16.058;2023-01-23T04:21:23;5.35;;;2.88;;
49514;SDS011;35415;47.870;16.058;2023-01-23T04:23:50;6.80;;;4.07;;
49514;SDS011;35415;47.870;16.058;2023-01-23T04:26:17;8.05;;;4.30;;
49514;SDS011;35415;47.870;16.058;2023-01-23T04:28:45;6.45;;;3.72;;
49514;SDS011;35415;47.870;16.058;2023-01-23T04:31:12;5.38;;;2.85;;
49514;SDS011;35415;47.870;16.058;2023-01-23T04:33:40;7.28;;;4.35;;
49514;SDS011;35415;47.870;16.058;2023-01-23T04:36:07;5.72;;;3.33;;
49514;SDS011;35415;47.870;16.058;2023-01-23T04:38:36;7.50;;;4.22;;
49514;SDS011;35415;47.870;16.058;2023-01-23T04:41:04;7.72;;;3.92;;
49514;SDS011;35415;47.870;16.058;2023-01-23T04:43:31;9.82;;;4.43;;
49514;SDS011;35415;47.870;16.058;2023-01-23T04:46:00;7.43;;;4.22;;
49514;SDS011;35415;47.870;16.058;2023-01-23T04:48:27;8.63;;;4.38;;
49514;SDS011;35415;47.870;16.058;2023-01-23T04:50:54;9.70;;;4.47;;
49514;SDS011;35415;47.870;16.058;2023-01-23T04:53:22;9.07;;;4.88;;
49514;SDS011;35415;47.870;16.058;2023-01-23T04:55:51;7.55;;;4.30;;
49514;SDS011;35415;47.870;16.058;2023-01-23T04:58:19;6.80;;;3.70;;
49514;SDS011;35415;47.870;16.058;2023-01-23T05:00:46;8.05;;;4.20;;
49514;SDS011;35415;47.870;16.058;2023-01-23T05:03:14;7.05;;;3.83;;
49514;SDS011;35415;47.870;16.058;2023-01-23T05:05:42;9.95;;;5.30;;
49514;SDS011;35415;47.870;16.058;2023-01-23T05:08:09;8.55;;;5.10;;
49514;SDS011;35415;47.870;16.058;2023-01-23T05:10:37;8.75;;;5.00;;
49514;SDS011;35415;47.870;16.058;2023-01-23T05:13:06;8.90;;;5.20;;
49514;SDS011;35415;47.870;16.058;2023-01-23T05:15:35;5.10;;;2.53;;
49514;SDS011;35415;47.870;16.058;2023-01-23T05:18:02;8.93;;;4.75;;
49514;SDS011;35415;47.870;16.058;2023-01-23T05:20:30;7.57;;;4.28;;
49514;SDS011;35415;47.870;16.058;2023-01-23T05:22:57;9.07;;;4.63;;
49514;SDS011;35415;47.870;16.058;2023-01-23T05:25:25;6.88;;;3.90;;
49514;SDS011;35415;47.870;16.058;2023-01-23T05:27:53;8.48;;;4.15;;
49514;SDS011;35415;47.870;16.058;2023-01-23T05:30:23;10.57;;;3.13;;
49514;SDS011;35415;47.870;16.058;2023-01-23T05:32:51;8.77;;;4.13;;
49514;SDS011;35415;47.870;16.058;2023-01-23T05:35:18;5.97;;;3.72;;
49514;SDS011;35415;47.870;16.058;2023-01-23T05:37:49;8.90;;;5.03;;
49514;SDS011;35415;47.870;16.058;2023-01-23T05:40:17;5.65;;;4.10;;
49514;SDS011;35415;47.870;16.058;2023-01-23T05:42:45;6.28;;;4.00;;
49514;SDS011;35415;47.870;16.058;2023-01-23T05:45:13;7.05;;;3.72;;
49514;SDS011;35415;47.870;16.058;2023-01-23T05:47:44;9.77;;;5.10;;
49514;SDS011;35415;47.870;16.058;2023-01-23T05:50:13;5.57;;;3.60;;
49514;SDS011;35415;47.870;16.058;2023-01-23T05:52:45;6.30;;;3.33;;
49514;SDS011;35415;47.870;16.058;2023-01-23T05:55:12;7.15;;;4.70;;
49514;SDS011;35415;47.870;16.058;2023-01-23T05:57:40;5.80;;;3.03;;
49514;SDS011;35415;47.870;16.058;2023-01-23T06:00:09;8.38;;;4.22;;
49514;SDS011;35415;47.870;16.058;2023-01-23T06:02:39;8.38;;;4.72;;
49514;SDS011;35415;47.870;16.058;2023-01-23T06:05:09;6.75;;;3.97;;
49514;SDS011;35415;47.870;16.058;2023-01-23T06:07:37;10.73;;;5.22;;
49514;SDS011;35415;47.870;16.058;2023-01-23T06:10:08;8.40;;;4.60;;
49514;SDS011;35415;47.870;16.058;2023-01-23T06:12:36;10.13;;;5.68;;
49514;SDS011;35415;47.870;16.058;2023-01-23T06:15:04;8.80;;;4.05;;
49514;SDS011;35415;47.870;16.058;2023-01-23T06:17:32;8.82;;;4.20;;
49514;SDS011;35415;47.870;16.058;2023-01-23T06:20:00;10.35;;;4.45;;
49514;SDS011;35415;47.870;16.058;2023-01-23T06:22:30;16.42;;;6.93;;
49514;SDS011;35415;47.870;16.058;2023-01-23T06:24:57;11.60;;;5.82;;
49514;SDS011;35415;47.870;16.058;2023-01-23T06:27:24;7.90;;;4.50;;
49514;SDS011;35415;47.870;16.058;2023-01-23T06:29:52;11.25;;;5.78;;
49514;SDS011;35415;47.870;16.058;2023-01-23T06:32:19;11.85;;;5.95;;
49514;SDS011;35415;47.870;16.058;2023-01-23T06:34:47;9.43;;;5.18;;
49514;SDS011;35415;47.870;16.058;2023-01-23T06:37:15;9.75;;;5.20;;
49514;SDS011;35415;47.870;16.058;2023-01-23T06:39:44;9.55;;;5.65;;
49514;SDS011;35415;47.870;16.058;2023-01-23T06:42:12;9.98;;;5.82;;
49514;SDS011;35415;47.870;16.058;2023-01-23T06:44:40;10.38;;;4.85;;
49514;SDS011;35415;47.870;16.058;2023-01-23T06:47:09;17.75;;;9.10;;
49514;SDS011;35415;47.870;16.058;2023-01-23T06:49:36;15.70;;;7.75;;
49514;SDS011;35415;47.870;16.058;2023-01-23T06:52:04;13.32;;;6.80;;
49514;SDS011;35415;47.870;16.058;2023-01-23T06:54:31;13.60;;;6.57;;
49514;SDS011;35415;47.870;16.058;2023-01-23T06:57:02;11.43;;;5.95;;
49514;SDS011;35415;47.870;16.058;2023-01-23T06:59:30;11.30;;;6.07;;
49514;SDS011;35415;47.870;16.058;2023-01-23T07:01:58;9.68;;;4.97;;
49514;SDS011;35415;47.870;16.058;2023-01-23T07:04:25;12.50;;;5.40;;
49514;SDS011;35415;47.870;16.058;2023-01-23T07:06:53;9.32;;;5.30;;
49514;SDS011;35415;47.870;16.058;2023-01-23T07:09:20;9.27;;;5.05;;
49514;SDS011;35415;47.870;16.058;2023-01-23T07:11:47;9.48;;;5.45;;
49514;SDS011;35415;47.870;16.058;2023-01-23T07:14:16;8.95;;;5.30;;
49514;SDS011;35415;47.870;16.058;2023-01-23T07:16:44;8.32;;;4.93;;
49514;SDS011;35415;47.870;16.058;2023-01-23T07:19:11;10.90;;;5.25;;
49514;SDS011;35415;47.870;16.058;2023-01-23T07:21:39;10.13;;;5.50;;
49514;SDS011;35415;47.870;16.058;2023-01-23T07:24:06;7.35;;;4.32;;
49514;SDS011;35415;47.870;16.058;2023-01-23T07:26:33;8.20;;;4.72;;
49514;SDS011;35415;47.870;16.058;2023-01-23T07:29:00;8.60;;;5.03;;
49514;SDS011;35415;47.870;16.058;2023-01-23T07:31:31;10.68;;;5.82;;
49514;SDS011;35415;47.870;16.058;2023-01-23T07:33:58;12.25;;;5.30;;
49514;SDS011;35415;47.870;16.058;2023-01-23T07:36:29;8.57;;;4.68;;
49514;SDS011;35415;47.870;16.058;2023-01-23T07:38:56;9.25;;;5.25;;
49514;SDS011;35415;47.870;16.058;2023-01-23T07:41:24;9.80;;;5.43;;
49514;SDS011;35415;47.870;16.058;2023-01-23T07:43:51;7.82;;;4.53;;
49514;SDS011;35415;47.870;16.058;2023-01-23T07:46:18;9.32;;;4.47;;
49514;SDS011;35415;47.870;16.058;2023-01-23T07:48:49;4.28;;;2.60;;
49514;SDS011;35415;47.870;16.058;2023-01-23T07:51:18;9.02;;;5.57;;
49514;SDS011;35415;47.870;16.058;2023-01-23T07:53:48;9.45;;;5.45;;
49514;SDS011;35415;47.870;16.058;2023-01-23T07:56:22;10.57;;;4.88;;
49514;SDS011;35415;47.870;16.058;2023-01-23T07:58:49;9.65;;;6.32;;
49514;SDS011;35415;47.870;16.058;2023-01-23T08:01:17;9.20;;;4.72;;
49514;SDS011;35415;47.870;16.058;2023-01-23T08:03:46;9.85;;;4.72;;
49514;SDS011;35415;47.870;16.058;2023-01-23T08:06:17;12.77;;;6.07;;
49514;SDS011;35415;47.870;16.058;2023-01-23T08:08:48;12.70;;;5.95;;
49514;SDS011;35415;47.870;16.058;2023-01-23T08:11:18;11.43;;;5.57;;
49514;SDS011;35415;47.870;16.058;2023-01-23T08:13:48;9.90;;;5.25;;
49514;SDS011;35415;47.870;16.058;2023-01-23T08:16:16;12.43;;;5.65;;
49514;SDS011;35415;47.870;16.058;2023-01-23T08:18:43;15.52;;;7.00;;
49514;SDS011;35415;47.870;16.058;2023-01-23T08:21:11;12.80;;;6.10;;
49514;SDS011;35415;47.870;16.058;2023-01-23T08:23:40;11.00;;;6.72;;
49514;SDS011;35415;47.870;16.058;2023-01-23T08:26:09;10.13;;;5.78;;
49514;SDS011;35415;47.870;16.058;2023-01-23T08:28:39;11.85;;;5.90;;
49514;SDS011;35415;47.870;16.058;2023-01-23T08:31:07;13.32;;;6.20;;
49514;SDS011;35415;47.870;16.058;2023-01-23T08:33:37;16.48;;;7.18;;
49514;SDS011;35415;47.870;16.058;2023-01-23T08:36:05;12.65;;;6.63;;
49514;SDS011;35415;47.870;16.058;2023-01-23T08:38:33;12.00;;;6.82;;
49514;SDS011;35415;47.870;16.058;2023-01-23T08:41:02;12.57;;;5.97;;
49514;SDS011;35415;47.870;16.058;2023-01-23T08:43:30;11.15;;;6.00;;
49514;SDS011;35415;47.870;16.058;2023-01-23T08:45:58;9.73;;;4.78;;
49514;SDS011;35415;47.870;16.058;2023-01-23T08:48:26;11.30;;;6.40;;
49514;SDS011;35415;47.870;16.058;2023-01-23T08:50:58;13.15;;;6.35;;
49514;SDS011;35415;47.870;16.058;2023-01-23T08:53:26;11.43;;;6.95;;
49514;SDS011;35415;47.870;16.058;2023-01-23T08:55:57;11.77;;;6.13;;
49514;SDS011;35415;47.870;16.058;2023-01-23T08:58:29;14.13;;;5.97;;
49514;SDS011;35415;47.870;16.058;2023-01-23T09:00:56;14.27;;;7.28;;
49514;SDS011;35415;47.870;16.058;2023-01-23T09:03:24;9.50;;;5.75;;
49514;SDS011;35415;47.870;16.058;2023-01-23T09:05:52;15.55;;;6.30;;
49514;SDS011;35415;47.870;16.058;2023-01-23T09:08:22;12.55;;;6.38;;
49514;SDS011;35415;47.870;16.058;2023-01-23T09:10:51;15.63;;;7.07;;
49514;SDS011;35415;47.870;16.058;2023-01-23T09:13:18;14.55;;;6.45;;
49514;SDS011;35415;47.870;16.058;2023-01-23T09:15:58;12.85;;;6.55;;
49514;SDS011;35415;47.870;16.058;2023-01-23T09:18:25;13.73;;;6.53;;
49514;SDS011;35415;47.870;16.058;2023-01-23T09:20:53;13.48;;;6.28;;
49514;SDS011;35415;47.870;16.058;2023-01-23T09:23:21;13.82;;;6.82;;
49514;SDS011;35415;47.870;16.058;2023-01-23T09:25:49;11.60;;;6.22;;
49514;SDS011;35415;47.870;16.058;2023-01-23T09:28:16;12.05;;;5.65;;
49514;SDS011;35415;47.870;16.058;2023-01-23T09:30:46;14.45;;;5.82;;
49514;SDS011;35415;47.870;16.058;2023-01-23T09:33:15;10.40;;;4.18;;
49514;SDS011;35415;47.870;16.058;2023-01-23T09:35:53;12.98;;;6.20;;
49514;SDS011;35415;47.870;16.058;2023-01-23T09:38:22;17.67;;;6.95;;
49514;SDS011;35415;47.870;16.058;2023-01-23T09:40:50;11.50;;;5.72;;
49514;SDS011;35415;47.870;16.058;2023-01-23T09:43:21;12.07;;;5.50;;
49514;SDS011;35415;47.870;16.058;2023-01-23T09:45:56;8.82;;;4.90;;
49514;SDS011;35415;47.870;16.058;2023-01-23T09:48:29;10.82;;;5.57;;
49514;SDS011;35415;47.870;16.058;2023-01-23T09:51:10;11.98;;;6.95;;
49514;SDS011;35415;47.870;16.058;2023-01-23T09:53:47;12.25;;;5.30;;
49514;SDS011;35415;47.870;16.058;2023-01-23T09:56:18;12.32;;;6.20;;
49514;SDS011;35415;47.870;16.058;2023-01-23T09:59:00;12.57;;;5.88;;
49514;SDS011;35415;47.870;16.058;2023-01-23T10:01:34;10.02;;;5.40;;
49514;SDS011;35415;47.870;16.058;2023-01-23T10:04:12;21.42;;;5.90;;
49514;SDS011;35415;47.870;16.058;2023-01-23T10:06:52;12.02;;;6.07;;
49514;SDS011;35415;47.870;16.058;2023-01-23T10:12:31;11.60;;;4.90;;
49514;SDS011;35415;47.870;16.058;2023-01-23T10:15:18;14.43;;;7.00;;
49514;SDS011;35415;47.870;16.058;2023-01-23T10:17:54;10.77;;;5.43;;
49514;SDS011;35415;47.870;16.058;2023-01-23T10:20:43;13.35;;;6.15;;
49514;SDS011;35415;47.870;16.058;2023-01-23T10:26:07;10.05;;;5.82;;
49514;SDS011;35415;47.870;16.058;2023-01-23T10:28:41;11.88;;;6.22;;
49514;SDS011;35415;47.870;16.058;2023-01-23T10:31:11;11.25;;;5.55;;
49514;SDS011;35415;47.870;16.058;2023-01-23T10:33:52;15.55;;;6.40;;
49514;SDS011;35415;47.870;16.058;2023-01-23T10:36:35;10.32;;;5.07;;
49514;SDS011;35415;47.870;16.058;2023-01-23T10:39:10;10.80;;;5.20;;
49514;SDS011;35415;47.870;16.058;2023-01-23T10:41:41;14.25;;;5.40;;
49514;SDS011;35415;47.870;16.058;2023-01-23T10:44:14;12.33;;;5.20;;
49514;SDS011;35415;47.870;16.058;2023-01-23T10:46:49;7.20;;;4.20;;
49514;SDS011;35415;47.870;16.058;2023-01-23T10:49:25;8.98;;;5.07;;
49514;SDS011;35415;47.870;16.058;2023-01-23T10:51:57;10.38;;;5.32;;
49514;SDS011;35415;47.870;16.058;2023-01-23T10:54:25;9.07;;;4.57;;
49514;SDS011;35415;47.870;16.058;2023-01-23T10:56:53;8.13;;;4.65;;
49514;SDS011;35415;47.870;16.058;2023-01-23T10:59:25;6.93;;;4.20;;
49514;SDS011;35415;47.870;16.058;2023-01-23T11:01:58;7.28;;;4.28;;
49514;SDS011;35415;47.870;16.058;2023-01-23T11:04:30;9.85;;;4.85;;
49514;SDS011;35415;47.870;16.058;2023-01-23T11:07:05;7.70;;;4.28;;
49514;SDS011;35415;47.870;16.058;2023-01-23T11:09:48;9.13;;;4.90;;
49514;SDS011;35415;47.870;16.058;2023-01-23T11:12:19;8.48;;;4.05;;
49514;SDS011;35415;47.870;16.058;2023-01-23T11:14:51;7.37;;;3.77;;
49514;SDS011;35415;47.870;16.058;2023-01-23T11:17:36;10.02;;;4.07;;
49514;SDS011;35415;47.870;16.058;2023-01-23T11:20:09;7.68;;;3.33;;
49514;SDS011;35415;47.870;16.058;2023-01-23T11:22:47;9.32;;;3.72;;
49514;SDS011;35415;47.870;16.058;2023-01-23T11:25:30;6.60;;;3.45;;
49514;SDS011;35415;47.870;16.058;2023-01-23T11:28:00;8.95;;;3.92;;
49514;SDS011;35415;47.870;16.058;2023-01-23T11:30:32;6.00;;;3.63;;
49514;SDS011;35415;47.870;16.058;2023-01-23T11:33:09;7.40;;;3.35;;
49514;SDS011;35415;47.870;16.058;2023-01-23T11:35:46;6.63;;;3.50;;
49514;SDS011;35415;47.870;16.058;2023-01-23T11:38:23;6.32;;;2.65;;
49514;SDS011;35415;47.870;16.058;2023-01-23T11:40:52;6.35;;;3.45;;
49514;SDS011;35415;47.870;16.058;2023-01-23T11:43:20;5.57;;;3.28;;
49514;SDS011;35415;47.870;16.058;2023-01-23T11:46:05;8.57;;;3.50;;
49514;SDS011;35415;47.870;16.058;2023-01-23T11:48:52;10.02;;;3.80;;
49514;SDS011;35415;47.870;16.058;2023-01-23T11:51:35;5.88;;;3.75;;
49514;SDS011;35415;47.870;16.058;2023-01-23T11:54:13;6.57;;;3.22;;
49514;SDS011;35415;47.870;16.058;2023-01-23T11:57:00;4.70;;;2.83;;
49514;SDS011;35415;47.870;16.058;2023-01-23T12:05:43;6.25;;;3.20;;
49514;SDS011;35415;47.870;16.058;2023-01-23T12:08:18;5.40;;;3.05;;
49514;SDS011;35415;47.870;16.058;2023-01-23T12:10:58;5.43;;;3.10;;
49514;SDS011;35415;47.870;16.058;2023-01-23T12:13:54;5.90;;;3.00;;
49514;SDS011;35415;47.870;16.058;2023-01-23T12:16:27;7.45;;;4.18;;
49514;SDS011;35415;47.870;16.058;2023-01-23T12:19:20;6.57;;;3.60;;
49514;SDS011;35415;47.870;16.058;2023-01-23T12:21:56;7.00;;;3.40;;
49514;SDS011;35415;47.870;16.058;2023-01-23T12:24:40;7.30;;;3.63;;
49514;SDS011;35415;47.870;16.058;2023-01-23T12:27:34;7.68;;;3.60;;
49514;SDS011;35415;47.870;16.058;2023-01-23T12:30:13;7.82;;;4.22;;
49514;SDS011;35415;47.870;16.058;2023-01-23T12:33:01;6.70;;;3.88;;
49514;SDS011;35415;47.870;16.058;2023-01-23T12:35:49;9.15;;;4.13;;
49514;SDS011;35415;47.870;16.058;2023-01-23T12:38:28;7.15;;;3.47;;
49514;SDS011;35415;47.870;16.058;2023-01-23T12:41:07;7.05;;;4.45;;
49514;SDS011;35415;47.870;16.058;2023-01-23T12:43:42;9.60;;;4.43;;
49514;SDS011;35415;47.870;16.058;2023-01-23T12:46:18;10.13;;;4.55;;
49514;SDS011;35415;47.870;16.058;2023-01-23T12:49:02;7.57;;;4.22;;
49514;SDS011;35415;47.870;16.058;2023-01-23T12:51:40;7.35;;;3.95;;
49514;SDS011;35415;47.870;16.058;2023-01-23T12:54:13;8.50;;;4.27;;
49514;SDS011;35415;47.870;16.058;2023-01-23T12:56:44;8.82;;;4.43;;
49514;SDS011;35415;47.870;16.058;2023-01-23T12:59:16;7.63;;;3.78;;
49514;SDS011;35415;47.870;16.058;2023-01-23T13:01:54;9.52;;;3.88;;
49514;SDS011;35415;47.870;16.058;2023-01-23T13:04:41;8.98;;;4.30;;
49514;SDS011;35415;47.870;16.058;2023-01-23T13:07:23;9.27;;;5.18;;
49514;SDS011;35415;47.870;16.058;2023-01-23T13:10:15;9.82;;;4.28;;
49514;SDS011;35415;47.870;16.058;2023-01-23T13:13:17;8.50;;;4.93;;
49514;SDS011;35415;47.870;16.058;2023-01-23T13:18:36;8.38;;;4.15;;
49514;SDS011;35415;47.870;16.058;2023-01-23T13:21:20;8.98;;;4.88;;
49514;SDS011;35415;47.870;16.058;2023-01-23T13:24:23;10.35;;;4.78;;
49514;SDS011;35415;47.870;16.058;2023-01-23T13:27:35;10.15;;;5.15;;
49514;SDS011;35415;47.870;16.058;2023-01-23T13:30:04;9.27;;;4.50;;
49514;SDS011;35415;47.870;16.058;2023-01-23T13:33:46;7.30;;;4.45;;
49514;SDS011;35415;47.870;16.058;2023-01-23T13:36:22;7.43;;;4.25;;
49514;SDS011;35415;47.870;16.058;2023-01-23T13:41:48;10.15;;;4.85;;
49514;SDS011;35415;47.870;16.058;2023-01-23T13:44:19;6.90;;;3.45;;
49514;SDS011;35415;47.870;16.058;2023-01-23T13:47:08;6.50;;;3.35;;
49514;SDS011;35415;47.870;16.058;2023-01-23T13:50:09;9.63;;;4.78;;
49514;SDS011;35415;47.870;16.058;2023-01-23T13:52:47;8.85;;;3.80;;
49514;SDS011;35415;47.870;16.058;2023-01-23T13:55:38;9.10;;;4.82;;
49514;SDS011;35415;47.870;16.058;2023-01-23T13:58:26;8.57;;;4.13;;
49514;SDS011;35415;47.870;16.058;2023-01-23T14:01:00;5.60;;;4.25;;
49514;SDS011;35415;47.870;16.058;2023-01-23T14:03:53;8.68;;;4.75;;
49514;SDS011;35415;47.870;16.058;2023-01-23T14:06:45;9.98;;;4.70;;
49514;SDS011;35415;47.870;16.058;2023-01-23T14:09:22;12.02;;;5.97;;
49514;SDS011;35415;47.870;16.058;2023-01-23T14:11:55;10.23;;;3.97;;
49514;SDS011;35415;47.870;16.058;2023-01-23T14:14:23;7.18;;;3.70;;
49514;SDS011;35415;47.870;16.058;2023-01-23T14:17:07;10.45;;;4.60;;
49514;SDS011;35415;47.870;16.058;2023-01-23T14:19:46;9.60;;;5.22;;
49514;SDS011;35415;47.870;16.058;2023-01-23T14:22:29;10.85;;;5.43;;
49514;SDS011;35415;47.870;16.058;2023-01-23T14:25:05;9.73;;;5.28;;
49514;SDS011;35415;47.870;16.058;2023-01-23T14:27:45;8.20;;;4.35;;
49514;SDS011;35415;47.870;16.058;2023-01-23T14:30:13;14.70;;;6.13;;
49514;SDS011;35415;47.870;16.058;2023-01-23T14:32:42;9.18;;;4.75;;
49514;SDS011;35415;47.870;16.058;2023-01-23T14:35:15;9.05;;;5.10;;
49514;SDS011;35415;47.870;16.058;2023-01-23T14:37:44;10.25;;;5.07;;
49514;SDS011;35415;47.870;16.058;2023-01-23T14:40:14;14.30;;;4.90;;
49514;SDS011;35415;47.870;16.058;2023-01-23T14:42:42;15.52;;;5.50;;
49514;SDS011;35415;47.870;16.058;2023-01-23T14:45:18;9.55;;;4.78;;
49514;SDS011;35415;47.870;16.058;2023-01-23T14:47:47;12.48;;;5.97;;
49514;SDS011;35415;47.870;16.058;2023-01-23T14:50:18;11.70;;;5.63;;
49514;SDS011;35415;47.870;16.058;2023-01-23T14:52:57;10.43;;;5.25;;
49514;SDS011;35415;47.870;16.058;2023-01-23T14:55:29;10.25;;;5.65;;
49514;SDS011;35415;47.870;16.058;2023-01-23T14:57:57;10.93;;;5.30;;
49514;SDS011;35415;47.870;16.058;2023-01-23T15:00:29;11.60;;;6.03;;
49514;SDS011;35415;47.870;16.058;2023-01-23T15:03:09;10.25;;;5.47;;
49514;SDS011;35415;47.870;16.058;2023-01-23T15:05:37;11.10;;;5.25;;
49514;SDS011;35415;47.870;16.058;2023-01-23T15:08:15;12.38;;;5.38;;
49514;SDS011;35415;47.870;16.058;2023-01-23T15:10:47;10.95;;;5.15;;
49514;SDS011;35415;47.870;16.058;2023-01-23T15:13:19;15.65;;;6.35;;
49514;SDS011;35415;47.870;16.058;2023-01-23T15:15:50;10.27;;;5.18;;
49514;SDS011;35415;47.870;16.058;2023-01-23T15:18:22;9.43;;;4.90;;
49514;SDS011;35415;47.870;16.058;2023-01-23T15:20:52;10.93;;;5.28;;